Time;durP1;ratioP1;P1;durP2;ratioP2;P2;SDS_P1;SDS_P2;PMS_P1;PMS_P2;Temp;Humidity;BMP_temperature;BMP_pressure;BME280_temperature;BME280_humidity;BME280_pressure;Samples;Min_cycle;Max_cycle;Signal;HPM_P1;HPM_P2
2022/03/10 00:01:54;;;;;;;;;;;;;;;18.00;56.54;101523.69;5111402;28;1526;-34
2022/03/10 00:04:21;;;;;;;;;;;;;;;18.08;56.59;101536.53;5110262;28;2006;-34
2022/03/10 00:06:53;;;;;;;;;;;;;;;18.07;56.99;101541.03;5110509;28;1568;-35
2022/03/10 00:09:23;;;;;;;;;;;;;;;18.04;56.85;101529.69;5107514;28;1916;-35
2022/03/10 00:11:56;;;;;;;;;;;;;;;18.08;56.80;101549.91;5110084;28;1906;-35
2022/03/10 00:14:24;;;;;;;;;;;;;;;18.06;56.58;101541.13;5111396;28;1162;-36
2022/03/10 00:16:52;;;;;;;;;;;;;;;17.98;56.43;101535.50;5108842;28;1653;-35
2022/03/10 00:19:20;;;;;;;;;;;;;;;18.01;56.68;101535.28;5110873;28;1908;-34
2022/03/10 00:21:47;;;;;;;;;;;;;;;18.03;56.61;101528.84;5110902;28;2098;-35
2022/03/10 00:24:14;;;;;;;;;;;;;;;18.01;56.54;101527.25;5110311;28;1893;-34
2022/03/10 00:26:52;;;;;;;;;;;;;;;18.04;56.59;101535.03;5110716;28;2025;-34
2022/03/10 00:29:18;;;;;;;;;;;;;;;17.98;56.51;101532.81;5110627;28;1962;-34
2022/03/10 00:31:49;;;;;;;;;;;;;;;17.92;57.03;101530.56;5109131;28;1665;-35
2022/03/10 00:34:16;;;;;;;;;;;;;;;17.89;56.73;101521.81;5102201;28;1691;-34
2022/03/10 00:36:42;;;;;;;;;;;;;;;17.86;56.32;101524.69;5110531;28;1659;-35
2022/03/10 00:39:09;;;;;;;;;;;;;;;17.85;56.87;101531.03;5110877;28;1823;-34
2022/03/10 00:41:36;;;;;;;;;;;;;;;17.88;56.66;101514.72;5105231;28;1793;-34
2022/03/10 00:44:06;;;;;;;;;;;;;;;17.91;56.15;101539.59;5112182;28;1168;-34
2022/03/10 00:46:32;;;;;;;;;;;;;;;17.92;56.43;101531.44;5111234;28;1910;-34
2022/03/10 00:49:01;;;;;;;;;;;;;;;17.94;58.58;101523.28;5113692;28;1798;-34
2022/03/10 00:51:28;;;;;;;;;;;;;;;18.10;56.80;101521.22;5116213;28;1636;-35
2022/03/10 00:53:54;;;;;;;;;;;;;;;18.26;56.09;101523.63;5116043;28;1732;-34
2022/03/10 00:56:23;;;;;;;;;;;;;;;18.38;56.02;101519.19;5115889;28;1983;-34
2022/03/10 00:58:58;;;;;;;;;;;;;;;18.47;55.56;101521.22;5116527;28;1610;-34
2022/03/10 01:01:35;;;;;;;;;;;;;;;18.51;55.31;101509.31;5109249;28;1814;-34
2022/03/10 01:04:04;;;;;;;;;;;;;;;18.48;55.24;101517.53;5102797;28;1632;-34
2022/03/10 01:06:34;;;;;;;;;;;;;;;18.44;55.51;101516.06;5115483;28;1984;-34
2022/03/10 01:09:02;;;;;;;;;;;;;;;18.39;55.41;101518.25;5116535;28;1725;-34
2022/03/10 01:11:28;;;;;;;;;;;;;;;18.40;55.39;101514.59;5115812;28;1729;-34
2022/03/10 01:14:00;;;;;;;;;;;;;;;18.26;55.60;101523.63;5116055;28;1547;-34
2022/03/10 01:16:33;;;;;;;;;;;;;;;18.14;55.40;101520.03;5116382;28;1805;-34
2022/03/10 01:19:02;;;;;;;;;;;;;;;18.05;55.77;101515.34;5115754;28;1589;-34
2022/03/10 01:21:29;;;;;;;;;;;;;;;18.03;55.93;101522.66;5115637;28;1437;-34
2022/03/10 01:23:59;;;;;;;;;;;;;;;17.89;55.99;101511.09;5115967;28;1809;-34
2022/03/10 01:26:27;;;;;;;;;;;;;;;17.86;55.73;101527.38;5115424;28;1910;-34
2022/03/10 01:28:56;;;;;;;;;;;;;;;17.79;55.88;101536.78;5115292;28;1607;-34
2022/03/10 01:31:25;;;;;;;;;;;;;;;17.75;55.88;101526.41;5116217;28;1074;-34
2022/03/10 01:33:57;;;;;;;;;;;;;;;17.66;56.05;101520.72;5112633;28;1805;-34
2022/03/10 01:36:26;;;;;;;;;;;;;;;17.64;56.26;101532.50;5112588;28;1798;-34
2022/03/10 01:38:54;;;;;;;;;;;;;;;17.54;56.11;101523.41;5111326;28;1829;-34
2022/03/10 01:41:21;;;;;;;;;;;;;;;17.45;56.40;101523.09;5110971;28;1622;-34
2022/03/10 01:44:00;;;;;;;;;;;;;;;17.41;56.50;101529.63;5116154;28;1721;-35
2022/03/10 01:46:27;;;;;;;;;;;;;;;17.39;56.61;101534.22;5115736;28;1984;-34
2022/03/10 01:49:08;;;;;;;;;;;;;;;17.34;56.07;101524.81;5113565;28;1945;-34
2022/03/10 01:51:36;;;;;;;;;;;;;;;17.31;56.56;101531.22;5115085;28;2020;-34
2022/03/10 01:54:04;;;;;;;;;;;;;;;17.34;56.24;101524.81;5114918;28;1531;-34
2022/03/10 01:56:41;;;;;;;;;;;;;;;17.30;56.49;101524.16;5115469;28;1548;-34
2022/03/10 01:59:12;;;;;;;;;;;;;;;17.26;56.22;101533.34;5115367;28;1634;-34
2022/03/10 02:01:40;;;;;;;;;;;;;;;17.27;55.44;101532.41;5115798;28;1452;-34
2022/03/10 02:04:09;;;;;;;;;;;;;;;17.42;56.63;101534.00;5115001;28;1855;-34
2022/03/10 02:06:40;;;;;;;;;;;;;;;17.54;56.44;101547.47;5111140;28;1909;-34
2022/03/10 02:11:52;;;;;;;;;;;;;;;17.55;56.56;101543.84;5114339;28;1446;-34
2022/03/10 02:19:55;;;;;;;;;;;;;;;17.49;56.53;101526.44;5115102;28;1445;-35
2022/03/10 02:22:27;;;;;;;;;;;;;;;17.46;56.17;101538.16;5115185;28;1649;-34
2022/03/10 02:24:57;;;;;;;;;;;;;;;17.48;56.49;101538.91;5114791;28;1864;-34
2022/03/10 02:27:24;;;;;;;;;;;;;;;17.45;56.86;101527.59;5105902;28;1757;-34
2022/03/10 02:29:51;;;;;;;;;;;;;;;17.43;56.35;101535.72;5110490;28;1896;-34
2022/03/10 02:32:22;;;;;;;;;;;;;;;17.41;56.29;101534.97;5113617;28;1516;-34
2022/03/10 02:34:52;;;;;;;;;;;;;;;17.45;56.70;101549.84;5100420;28;1684;-35
2022/03/10 02:37:19;;;;;;;;;;;;;;;17.41;56.30;101539.47;5114801;28;1163;-35
2022/03/10 02:39:49;;;;;;;;;;;;;;;17.41;55.88;101536.81;5105689;28;1357;-34
2022/03/10 02:42:18;;;;;;;;;;;;;;;17.40;55.91;101551.13;5113343;28;1625;-34
2022/03/10 02:44:46;;;;;;;;;;;;;;;17.36;56.34;101554.97;5114740;28;1765;-34
2022/03/10 02:47:26;;;;;;;;;;;;;;;17.32;56.61;101548.97;5113889;28;1902;-35
2022/03/10 02:49:53;;;;;;;;;;;;;;;17.34;56.61;101557.72;5112551;28;1685;-34
2022/03/10 02:52:22;;;;;;;;;;;;;;;17.30;56.34;101550.88;5111291;28;1657;-34
2022/03/10 02:54:55;;;;;;;;;;;;;;;17.25;56.55;101553.88;5113209;28;1375;-34
2022/03/10 02:57:23;;;;;;;;;;;;;;;17.21;56.84;101556.84;5114340;28;1788;-34
2022/03/10 02:59:52;;;;;;;;;;;;;;;17.21;56.56;101562.19;5113843;28;1832;-34
2022/03/10 03:02:19;;;;;;;;;;;;;;;17.19;56.48;101574.81;5146571;22;3697;-33
2022/03/10 03:04:47;;;;;;;;;;;;;;;17.20;56.52;101568.53;5031511;28;1512;-34
2022/03/10 03:07:14;;;;;;;;;;;;;;;17.18;56.56;101568.63;5022581;28;1906;-34
2022/03/10 03:09:41;;;;;;;;;;;;;;;17.15;56.04;101565.28;5024150;28;1780;-33
2022/03/10 03:12:08;;;;;;;;;;;;;;;17.19;56.95;101561.44;5025231;28;1410;-34
2022/03/10 03:14:35;;;;;;;;;;;;;;;17.19;56.35;101561.44;5024560;28;1806;-34
2022/03/10 03:17:01;;;;;;;;;;;;;;;17.22;56.05;101563.94;5025157;28;998;-34
2022/03/10 03:19:28;;;;;;;;;;;;;;;17.25;55.90;101569.06;5025050;28;2037;-35
2022/03/10 03:21:55;;;;;;;;;;;;;;;17.29;55.92;101559.88;5019510;28;1589;-34
2022/03/10 03:24:22;;;;;;;;;;;;;;;17.34;55.92;101563.09;5023960;28;1482;-34
2022/03/10 03:26:48;;;;;;;;;;;;;;;17.35;55.24;101554.13;5022014;28;1902;-33
2022/03/10 03:29:16;;;;;;;;;;;;;;;17.57;55.21;101561.50;5023750;28;2126;-34
2022/03/10 03:31:43;;;;;;;;;;;;;;;17.57;54.94;101561.50;5015188;28;1574;-33
2022/03/10 03:34:11;;;;;;;;;;;;;;;17.48;55.91;101568.31;5025212;28;2004;-33
2022/03/10 03:36:38;;;;;;;;;;;;;;;17.36;56.13;101573.69;5020779;28;2012;-34
2022/03/10 03:39:05;;;;;;;;;;;;;;;17.33;56.29;101572.09;5021791;28;1757;-34
2022/03/10 03:41:35;;;;;;;;;;;;;;;17.28;56.04;101569.69;5022371;28;1666;-33
2022/03/10 03:44:06;;;;;;;;;;;;;;;17.24;56.36;101578.88;5033772;28;1022;-33
2022/03/10 03:46:34;;;;;;;;;;;;;;;17.21;56.30;101583.56;5017563;28;1906;-34
2022/03/10 03:49:05;;;;;;;;;;;;;;;17.24;56.08;101588.72;5019891;28;1557;-33
2022/03/10 03:51:32;;;;;;;;;;;;;;;17.23;56.26;101581.66;5021763;28;1769;-33
2022/03/10 03:53:59;;;;;;;;;;;;;;;17.19;55.95;101581.03;5019512;28;1277;-34
2022/03/10 03:56:28;;;;;;;;;;;;;;;17.19;56.28;101582.81;5019978;28;1640;-34
2022/03/10 03:58:56;;;;;;;;;;;;;;;17.14;56.21;101583.16;5025288;28;1614;-34
2022/03/10 04:01:24;;;;;;;;;;;;;;;17.13;56.61;101591.25;5025131;28;1636;-33
2022/03/10 04:03:55;;;;;;;;;;;;;;;17.12;56.99;101589.56;5029377;28;1641;-34
2022/03/10 04:06:22;;;;;;;;;;;;;;;17.10;56.65;101595.84;5022924;28;1942;-33
2022/03/10 04:08:49;;;;;;;;;;;;;;;17.07;56.94;101595.22;5021494;28;1757;-33
2022/03/10 04:11:16;;;;;;;;;;;;;;;17.08;57.03;101588.91;5025660;28;1799;-33
2022/03/10 04:13:45;;;;;;;;;;;;;;;17.13;56.69;101596.59;5026380;28;1055;-33
2022/03/10 04:16:12;;;;;;;;;;;;;;;17.15;55.76;101589.34;5024564;28;1721;-33
2022/03/10 04:18:39;;;;;;;;;;;;;;;17.33;55.41;101581.91;5022575;28;1820;-33
2022/03/10 04:21:08;;;;;;;;;;;;;;;17.54;55.17;101593.78;5024660;28;1272;-34
2022/03/10 04:23:35;;;;;;;;;;;;;;;17.79;54.58;101578.72;5017190;28;1902;-33
2022/03/10 04:26:04;;;;;;;;;;;;;;;17.98;53.94;101592.53;5026252;28;1985;-33
2022/03/10 04:28:31;;;;;;;;;;;;;;;18.25;53.76;101591.56;5033049;28;1714;-33
2022/03/10 04:31:01;;;;;;;;;;;;;;;18.51;53.21;101573.59;5033408;28;1780;-34
2022/03/10 04:33:28;;;;;;;;;;;;;;;18.50;52.83;101590.59;5031984;28;1839;-33
2022/03/10 04:35:58;;;;;;;;;;;;;;;18.63;52.95;101593.25;5027428;28;2348;-33
2022/03/10 04:38:41;;;;;;;;;;;;;;;18.80;52.55;101592.03;5025120;28;1831;-33
2022/03/10 04:41:14;;;;;;;;;;;;;;;18.96;51.84;101606.00;5021743;28;1673;-33
2022/03/10 04:43:43;;;;;;;;;;;;;;;18.77;51.97;101609.16;5024536;28;1493;-33
2022/03/10 04:46:10;;;;;;;;;;;;;;;18.56;52.69;101600.91;5026482;28;1981;-34
2022/03/10 04:48:38;;;;;;;;;;;;;;;18.55;52.72;101617.91;5029629;28;1602;-33
2022/03/10 04:51:07;;;;;;;;;;;;;;;18.51;52.89;101616.44;5024529;28;1618;-34
2022/03/10 04:53:36;;;;;;;;;;;;;;;18.33;53.21;101609.75;5029414;28;1652;-34
2022/03/10 04:56:05;;;;;;;;;;;;;;;18.26;53.11;101615.53;5022242;28;1433;-34
2022/03/10 04:58:37;;;;;;;;;;;;;;;18.17;53.58;101631.41;5029927;28;1591;-34
2022/03/10 05:01:06;;;;;;;;;;;;;;;18.06;53.75;101633.03;5027305;28;1316;-34
2022/03/10 05:03:36;;;;;;;;;;;;;;;17.98;53.85;101615.78;5017705;28;2136;-34
2022/03/10 05:06:10;;;;;;;;;;;;;;;17.94;53.93;101635.69;5018997;28;1903;-34
2022/03/10 05:08:36;;;;;;;;;;;;;;;17.88;53.98;101629.78;5017364;28;1054;-33
2022/03/10 05:11:04;;;;;;;;;;;;;;;17.78;53.97;101636.72;5019999;28;1977;-34
2022/03/10 05:13:34;;;;;;;;;;;;;;;17.79;54.01;101646.47;5023753;28;1789;-34
2022/03/10 05:16:05;;;;;;;;;;;;;;;17.66;54.20;101646.44;5023119;28;1789;-33
2022/03/10 05:18:32;;;;;;;;;;;;;;;17.60;54.01;101632.63;5026711;28;1434;-34
2022/03/10 05:21:00;;;;;;;;;;;;;;;17.58;53.94;101648.78;5028005;28;1344;-34
2022/03/10 05:23:29;;;;;;;;;;;;;;;17.54;54.10;101654.47;5020792;28;1570;-34
2022/03/10 05:25:55;;;;;;;;;;;;;;;17.55;54.16;101661.50;5031066;28;1969;-34
2022/03/10 05:28:25;;;;;;;;;;;;;;;17.50;54.18;101664.50;5023239;28;1764;-33
2022/03/10 05:30:53;;;;;;;;;;;;;;;17.46;54.55;101663.84;5029895;28;1931;-34
2022/03/10 05:33:24;;;;;;;;;;;;;;;17.42;54.27;101670.34;5020676;28;1952;-33
2022/03/10 05:35:53;;;;;;;;;;;;;;;17.39;54.69;101673.25;5023106;28;1997;-33
2022/03/10 05:38:23;;;;;;;;;;;;;;;17.38;54.29;101673.34;5029444;28;1626;-34
2022/03/10 05:40:52;;;;;;;;;;;;;;;17.32;54.68;101679.97;5024954;28;1418;-34
2022/03/10 05:43:18;;;;;;;;;;;;;;;17.33;54.60;101680.81;5034022;28;1529;-34
2022/03/10 05:45:47;;;;;;;;;;;;;;;17.31;54.46;101686.28;5032323;28;1804;-33
2022/03/10 05:48:16;;;;;;;;;;;;;;;17.31;54.58;101686.28;5022562;28;2003;-33
2022/03/10 05:50:47;;;;;;;;;;;;;;;17.25;54.60;101676.84;5017469;28;1547;-33
2022/03/10 05:53:15;;;;;;;;;;;;;;;17.27;54.33;101700.81;5017247;28;1722;-34
2022/03/10 05:55:46;;;;;;;;;;;;;;;17.22;54.23;101694.91;5027903;28;1826;-34
2022/03/10 05:58:16;;;;;;;;;;;;;;;17.26;54.45;101693.72;5016621;28;1542;-33
2022/03/10 06:00:44;;;;;;;;;;;;;;;17.21;54.80;101691.38;5021815;28;1240;-34
2022/03/10 06:03:13;;;;;;;;;;;;;;;17.40;54.89;101711.53;5032675;28;1600;-34
2022/03/10 06:05:41;;;;;;;;;;;;;;;17.51;54.78;101703.66;5033909;28;1614;-34
2022/03/10 06:08:11;;;;;;;;;;;;;;;17.56;53.99;101706.03;5022937;28;1977;-33
2022/03/10 06:10:38;;;;;;;;;;;;;;;17.92;53.93;101699.16;5031685;28;1943;-34
2022/03/10 06:13:05;;;;;;;;;;;;;;;18.47;52.95;101693.47;5024565;28;1554;-33
2022/03/10 06:15:32;;;;;;;;;;;;;;;19.34;51.65;101696.13;5020947;28;1628;-33
2022/03/10 06:18:02;;;;;;;;;;;;;;;19.08;51.45;101692.72;5031353;28;1522;-33
2022/03/10 06:20:37;;;;;;;;;;;;;;;19.12;52.06;101698.69;5015813;28;1775;-33
2022/03/10 06:23:03;;;;;;;;;;;;;;;19.10;51.61;101711.34;5029172;28;1636;-36
2022/03/10 06:25:32;;;;;;;;;;;;;;;19.52;51.64;101706.41;5020569;28;1632;-36
2022/03/10 06:27:58;;;;;;;;;;;;;;;19.28;52.33;101699.28;5018284;28;1985;-37
2022/03/10 06:30:28;;;;;;;;;;;;;;;19.28;52.30;101701.94;5027141;28;1074;-36
2022/03/10 06:32:57;;;;;;;;;;;;;;;19.61;51.97;101721.81;5032627;28;2005;-36
2022/03/10 06:35:29;;;;;;;;;;;;;;;19.62;50.88;101713.66;5018486;28;1705;-35
2022/03/10 06:37:59;;;;;;;;;;;;;;;19.30;52.09;101710.75;5029607;28;1959;-36
2022/03/10 06:40:27;;;;;;;;;;;;;;;19.30;51.73;101707.19;5021336;28;1617;-36
2022/03/10 06:42:56;;;;;;;;;;;;;;;19.28;52.67;101716.22;5028134;28;1663;-36
2022/03/10 06:45:24;;;;;;;;;;;;;;;19.44;52.85;101726.66;5030521;28;1787;-36
2022/03/10 06:47:52;;;;;;;;;;;;;;;19.57;52.69;101720.34;5025806;28;1910;-35
2022/03/10 06:50:19;;;;;;;;;;;;;;;19.64;51.60;101726.97;5023651;28;1565;-35
2022/03/10 06:52:46;;;;;;;;;;;;;;;19.69;54.07;101719.41;5019255;28;1402;-36
2022/03/10 06:55:12;;;;;;;;;;;;;;;19.65;53.67;101717.94;5024704;28;1551;-36
2022/03/10 06:57:39;;;;;;;;;;;;;;;19.54;53.04;101725.97;5025046;28;1577;-36
2022/03/10 07:00:08;;;;;;;;;;;;;;;19.55;53.61;101719.59;5030387;28;1575;-36
2022/03/10 07:02:34;;;;;;;;;;;;;;;19.36;52.48;101715.63;5027783;28;1540;-36
2022/03/10 07:05:02;;;;;;;;;;;;;;;19.27;53.04;101727.03;5021963;28;1508;-36
2022/03/10 07:07:28;;;;;;;;;;;;;;;19.22;52.27;101727.38;5029290;28;1907;-36
2022/03/10 07:09:54;;;;;;;;;;;;;;;19.19;52.69;101734.81;5022156;28;1352;-36
2022/03/10 07:12:21;;;;;;;;;;;;;;;19.03;52.76;101738.59;5031611;28;1542;-36
2022/03/10 07:14:47;;;;;;;;;;;;;;;18.98;51.42;101738.09;5032313;28;1503;-36
2022/03/10 07:17:15;;;;;;;;;;;;;;;18.96;51.39;101745.41;5028443;28;1466;-36
2022/03/10 07:19:42;;;;;;;;;;;;;;;18.92;52.10;101737.66;5025618;28;1962;-36
2022/03/10 07:22:08;;;;;;;;;;;;;;;18.91;51.50;101744.00;5019629;28;1692;-36
2022/03/10 07:24:34;;;;;;;;;;;;;;;18.94;52.01;101733.94;5023465;28;1765;-36
2022/03/10 07:27:01;;;;;;;;;;;;;;;18.86;51.44;101747.00;5028323;28;1906;-36
2022/03/10 07:29:27;;;;;;;;;;;;;;;18.75;52.56;101761.16;5026679;28;1376;-36
2022/03/10 07:31:54;;;;;;;;;;;;;;;18.77;52.47;101748.50;5029420;28;1534;-36
2022/03/10 07:34:22;;;;;;;;;;;;;;;18.79;52.18;101751.06;5029832;28;1748;-36
2022/03/10 07:36:48;;;;;;;;;;;;;;;18.89;52.30;101757.50;5026939;28;1777;-36
2022/03/10 07:39:14;;;;;;;;;;;;;;;18.97;52.41;101760.50;5023117;28;1799;-36
2022/03/10 07:41:41;;;;;;;;;;;;;;;18.79;52.59;101746.59;5028516;28;1589;-36
2022/03/10 07:44:07;;;;;;;;;;;;;;;18.80;53.42;101755.47;5026297;28;1557;-36
2022/03/10 07:46:34;;;;;;;;;;;;;;;18.86;52.36;101763.09;5025324;28;2100;-36
2022/03/10 07:49:01;;;;;;;;;;;;;;;18.91;50.75;101755.56;5028224;28;1491;-36
2022/03/10 07:51:28;;;;;;;;;;;;;;;19.03;51.62;101749.31;5030078;28;1381;-36
2022/03/10 07:53:55;;;;;;;;;;;;;;;18.96;51.99;101757.91;5022536;28;1427;-36
2022/03/10 07:56:21;;;;;;;;;;;;;;;18.94;52.07;101752.69;5022393;28;1693;-36
2022/03/10 07:58:48;;;;;;;;;;;;;;;19.03;52.26;101751.16;5029688;28;1550;-36
2022/03/10 08:01:14;;;;;;;;;;;;;;;19.13;52.08;101748.66;5027946;28;1443;-36
2022/03/10 08:03:41;;;;;;;;;;;;;;;19.04;52.40;101750.19;5030730;28;1944;-36
2022/03/10 08:06:10;;;;;;;;;;;;;;;18.89;52.01;101752.16;5026993;28;1559;-36
2022/03/10 08:08:46;;;;;;;;;;;;;;;18.82;50.97;101740.16;5027295;28;1902;-36
2022/03/10 08:11:15;;;;;;;;;;;;;;;18.84;50.59;101744.47;5031344;28;1662;-36
2022/03/10 08:13:42;;;;;;;;;;;;;;;17.55;46.75;101749.75;5032624;28;1379;-37
2022/03/10 08:16:10;;;;;;;;;;;;;;;15.87;45.11;101779.75;5032050;28;1652;-36
2022/03/10 08:18:38;;;;;;;;;;;;;;;15.11;44.68;101780.50;5035520;28;1632;-36
2022/03/10 08:21:06;;;;;;;;;;;;;;;16.53;49.62;101756.22;5009934;28;1342;-36
2022/03/10 08:23:33;;;;;;;;;;;;;;;17.77;45.17;101767.94;5024134;28;1762;-37
2022/03/10 08:26:05;;;;;;;;;;;;;;;18.58;44.54;101759.69;5036025;28;1557;-36
2022/03/10 08:28:33;;;;;;;;;;;;;;;18.99;45.00;101749.66;5034186;28;1906;-36
2022/03/10 08:30:59;;;;;;;;;;;;;;;19.19;45.19;101748.22;5029374;28;1415;-36
2022/03/10 08:33:28;;;;;;;;;;;;;;;19.21;45.34;101754.31;5029561;28;1471;-36
2022/03/10 08:35:54;;;;;;;;;;;;;;;19.28;45.31;101759.13;5029679;28;1684;-36
2022/03/10 08:38:25;;;;;;;;;;;;;;;19.24;46.02;101763.00;5029207;28;1603;-36
2022/03/10 08:40:53;;;;;;;;;;;;;;;19.33;46.20;101764.13;5026281;28;1554;-36
2022/03/10 08:43:28;;;;;;;;;;;;;;;19.60;45.60;101765.75;5036585;28;1756;-36
2022/03/10 08:45:56;;;;;;;;;;;;;;;19.52;45.99;101760.06;5030010;28;1623;-35
2022/03/10 08:48:25;;;;;;;;;;;;;;;19.68;46.03;101772.25;5023651;28;1902;-36
2022/03/10 08:50:54;;;;;;;;;;;;;;;19.44;47.08;101758.84;5027806;28;1579;-36
2022/03/10 08:53:21;;;;;;;;;;;;;;;19.35;47.39;101759.50;5017364;28;1627;-36
2022/03/10 08:55:50;;;;;;;;;;;;;;;19.23;47.85;101760.41;5030488;28;1558;-36
2022/03/10 08:58:18;;;;;;;;;;;;;;;19.31;47.55;101768.75;5035563;28;1388;-36
2022/03/10 09:00:48;;;;;;;;;;;;;;;19.19;47.41;101769.66;5025184;28;1154;-36
2022/03/10 09:03:18;;;;;;;;;;;;;;;19.14;48.05;101777.16;5017984;28;1781;-36
2022/03/10 09:05:47;;;;;;;;;;;;;;;18.99;48.94;101769.28;5031140;28;1795;-36
2022/03/10 09:08:14;;;;;;;;;;;;;;;18.93;49.06;101767.03;5018455;28;1976;-36
2022/03/10 09:10:43;;;;;;;;;;;;;;;18.79;49.39;101775.19;5020191;28;2054;-36
2022/03/10 09:13:14;;;;;;;;;;;;;;;18.83;49.52;101774.88;5032671;28;1590;-36
2022/03/10 09:15:45;;;;;;;;;;;;;;;18.78;49.99;101774.34;5033831;28;1954;-36
2022/03/10 09:18:17;;;;;;;;;;;;;;;18.73;49.91;101770.28;5031394;28;1631;-36
2022/03/10 09:20:45;;;;;;;;;;;;;;;18.66;50.16;101762.69;5023614;28;1856;-37
2022/03/10 09:23:13;;;;;;;;;;;;;;;18.59;50.56;101771.25;5021736;28;1777;-36
2022/03/10 09:25:41;;;;;;;;;;;;;;;18.43;50.58;101766.13;5025248;28;1724;-36
2022/03/10 09:28:10;;;;;;;;;;;;;;;18.38;50.95;101774.47;5033452;28;1954;-38
2022/03/10 09:30:36;;;;;;;;;;;;;;;18.31;50.87;101777.69;5031415;28;1287;-36
2022/03/10 09:33:03;;;;;;;;;;;;;;;18.35;51.09;101773.84;5029021;28;2071;-36
2022/03/10 09:35:31;;;;;;;;;;;;;;;18.45;51.27;101774.91;5021881;28;1561;-36
2022/03/10 09:37:57;;;;;;;;;;;;;;;18.51;51.33;101769.09;5025098;28;1591;-36
2022/03/10 09:40:24;;;;;;;;;;;;;;;18.65;50.67;101770.81;5025686;28;1426;-36
2022/03/10 09:42:51;;;;;;;;;;;;;;;18.85;50.65;101772.09;5032482;28;1450;-36
2022/03/10 09:45:18;;;;;;;;;;;;;;;18.86;50.35;101763.97;5031569;28;1924;-36
2022/03/10 09:47:45;;;;;;;;;;;;;;;18.93;50.32;101769.72;5030117;28;1906;-36
2022/03/10 09:50:13;;;;;;;;;;;;;;;19.23;49.17;101765.78;5029556;28;1423;-36
2022/03/10 09:52:41;;;;;;;;;;;;;;;19.30;49.09;101771.53;5026361;28;1391;-36
2022/03/10 09:55:09;;;;;;;;;;;;;;;19.53;49.09;101767.16;5024587;28;1570;-36
2022/03/10 09:57:38;;;;;;;;;;;;;;;19.29;49.58;101765.31;5024595;28;1640;-36
2022/03/10 10:00:06;;;;;;;;;;;;;;;19.26;50.46;101755.69;5028886;28;1418;-36
2022/03/10 10:02:32;;;;;;;;;;;;;;;19.37;49.95;101749.53;5016292;28;1717;-36
2022/03/10 10:04:59;;;;;;;;;;;;;;;19.42;50.06;101766.13;5031759;28;1548;-37
2022/03/10 10:07:27;;;;;;;;;;;;;;;19.20;50.78;101782.09;5027937;28;1973;-36
2022/03/10 10:09:56;;;;;;;;;;;;;;;19.09;50.51;101772.16;5023714;28;1188;-35
2022/03/10 10:12:28;;;;;;;;;;;;;;;19.03;51.28;101768.09;5024825;28;2004;-36
2022/03/10 10:15:00;;;;;;;;;;;;;;;19.05;50.95;101768.84;5032345;28;1939;-36
2022/03/10 10:17:28;;;;;;;;;;;;;;;19.13;50.54;101768.28;5033035;28;1359;-35
2022/03/10 10:19:57;;;;;;;;;;;;;;;19.11;50.68;101764.84;5027616;28;1725;-36
2022/03/10 10:22:26;;;;;;;;;;;;;;;18.90;51.61;101753.88;5029100;28;1782;-36
2022/03/10 10:24:53;;;;;;;;;;;;;;;18.80;51.66;101758.16;5026089;28;1934;-36
2022/03/10 10:27:46;;;;;;;;;;;;;;;18.74;52.36;101769.28;5021913;28;1808;-36
2022/03/10 10:30:17;;;;;;;;;;;;;;;18.67;52.19;101759.00;5020544;28;1910;-36
2022/03/10 10:32:52;;;;;;;;;;;;;;;18.78;51.98;101765.44;5026588;28;1993;-36
2022/03/10 10:35:21;;;;;;;;;;;;;;;18.79;51.96;101751.06;5030515;28;1561;-36
2022/03/10 10:37:50;;;;;;;;;;;;;;;18.73;51.91;101767.59;5030101;28;1962;-36
2022/03/10 10:40:20;;;;;;;;;;;;;;;18.62;53.03;101762.97;5032119;28;1435;-36
2022/03/10 10:42:52;;;;;;;;;;;;;;;18.78;52.37;101765.44;5032327;28;1776;-36
2022/03/10 10:45:29;;;;;;;;;;;;;;;18.71;52.77;101770.38;5019059;28;1951;-36
2022/03/10 10:48:08;;;;;;;;;;;;;;;18.64;53.41;101769.97;5023295;28;1910;-36
2022/03/10 10:50:43;;;;;;;;;;;;;;;18.58;53.26;101765.03;5027815;28;1705;-36
2022/03/10 10:53:36;;;;;;;;;;;;;;;18.58;53.92;101770.41;5016663;28;1781;-36
2022/03/10 10:56:07;;;;;;;;;;;;;;;18.64;53.25;101779.81;5023679;28;1732;-36
2022/03/10 10:58:45;;;;;;;;;;;;;;;18.79;53.14;101789.47;5024672;28;1642;-37
2022/03/10 11:01:26;;;;;;;;;;;;;;;18.62;53.44;101800.47;5017979;28;1768;-37
2022/03/10 11:03:56;;;;;;;;;;;;;;;18.58;53.42;101790.94;5029225;28;1729;-36
2022/03/10 11:06:27;;;;;;;;;;;;;;;18.52;53.96;101791.38;5021338;28;1419;-36
2022/03/10 11:08:56;;;;;;;;;;;;;;;18.45;54.29;101773.06;5020763;28;1988;-35
2022/03/10 11:11:27;;;;;;;;;;;;;;;18.56;53.79;101777.69;5026614;28;1901;-37
2022/03/10 11:14:06;;;;;;;;;;;;;;;18.46;54.45;101772.13;5033208;28;1676;-37
2022/03/10 11:16:33;;;;;;;;;;;;;;;18.51;53.82;101757.53;5028757;28;1609;-36
2022/03/10 11:19:01;;;;;;;;;;;;;;;18.65;53.67;101771.66;5022425;28;1723;-36
2022/03/10 11:21:49;;;;;;;;;;;;;;;18.96;53.47;101774.00;5024003;28;1490;-37
2022/03/10 11:24:36;;;;;;;;;;;;;;;19.12;53.63;101761.22;4991955;28;1590;-37
2022/03/10 11:27:26;;;;;;;;;;;;;;;19.42;53.13;101771.50;5024836;28;1475;-37
2022/03/10 11:29:58;;;;;;;;;;;;;;;19.48;52.86;101765.69;5026675;28;2035;-36
2022/03/10 11:32:29;;;;;;;;;;;;;;;19.55;52.77;101774.13;5028973;28;1578;-36
2022/03/10 11:35:05;;;;;;;;;;;;;;;19.54;52.63;101768.88;5031194;28;1243;-36
2022/03/10 11:37:52;;;;;;;;;;;;;;;19.56;53.09;101764.25;5028358;28;1286;-37
2022/03/10 11:40:21;;;;;;;;;;;;;;;19.57;52.35;101779.38;5029171;28;1676;-37
2022/03/10 11:42:59;;;;;;;;;;;;;;;19.58;52.46;101756.97;5032127;28;1282;-37
2022/03/10 11:45:32;;;;;;;;;;;;;;;19.64;51.70;101778.81;5026174;28;1934;-36
2022/03/10 11:48:19;;;;;;;;;;;;;;;19.55;52.22;101763.38;5031142;28;1910;-36
2022/03/10 11:50:49;;;;;;;;;;;;;;;19.45;52.56;101770.41;5022087;28;1798;-36
2022/03/10 11:53:16;;;;;;;;;;;;;;;19.38;52.82;101750.41;5025227;28;1533;-36
2022/03/10 11:55:45;;;;;;;;;;;;;;;19.38;52.89;101775.38;5027397;28;1559;-36
2022/03/10 11:58:13;;;;;;;;;;;;;;;19.23;53.12;101763.09;5029476;28;1708;-36
2022/03/10 12:00:52;;;;;;;;;;;;;;;19.02;52.66;101771.75;5029671;28;1472;-36
2022/03/10 12:03:21;;;;;;;;;;;;;;;19.03;53.68;101765.41;5022371;28;2526;-37
2022/03/10 12:05:59;;;;;;;;;;;;;;;19.02;53.28;101774.44;5025317;28;1811;-36
2022/03/10 12:08:30;;;;;;;;;;;;;;;19.01;54.11;101778.06;5017492;28;1902;-36
2022/03/10 12:11:01;;;;;;;;;;;;;;;19.02;53.76;101798.56;5022141;28;1839;-36
2022/03/10 12:13:29;;;;;;;;;;;;;;;18.87;54.32;101792.47;5022909;28;1690;-36
2022/03/10 12:16:07;;;;;;;;;;;;;;;18.77;54.47;101779.81;5022745;28;1506;-36
2022/03/10 12:18:51;;;;;;;;;;;;;;;18.78;54.68;101786.88;5017605;28;1535;-37
2022/03/10 12:21:20;;;;;;;;;;;;;;;18.81;54.50;101808.13;5017505;28;1759;-36
2022/03/10 12:23:57;;;;;;;;;;;;;;;18.82;55.08;101810.72;5031484;28;1892;-37
2022/03/10 12:26:27;;;;;;;;;;;;;;;18.87;55.02;101829.13;5030486;28;1657;-36
2022/03/10 12:28:55;;;;;;;;;;;;;;;18.95;54.40;101805.31;5024110;28;1906;-36
2022/03/10 12:31:24;;;;;;;;;;;;;;;18.84;55.62;101773.94;5029418;28;1685;-36
2022/03/10 12:33:52;;;;;;;;;;;;;;;18.86;55.87;101792.56;5023297;28;1894;-36
2022/03/10 12:36:26;;;;;;;;;;;;;;;18.88;55.31;101798.69;5026443;28;1637;-36
2022/03/10 12:38:53;;;;;;;;;;;;;;;19.01;56.00;101796.81;5021808;28;1496;-36
2022/03/10 12:41:20;;;;;;;;;;;;;;;18.91;55.79;101793.09;5019418;28;1722;-36
2022/03/10 12:43:52;;;;;;;;;;;;;;;18.81;55.90;101792.06;5020568;28;1579;-36
2022/03/10 12:46:19;;;;;;;;;;;;;;;18.75;55.43;101803.19;5024976;28;1979;-36
2022/03/10 12:48:50;;;;;;;;;;;;;;;18.83;56.33;101811.56;5024828;28;1909;-35
2022/03/10 12:51:20;;;;;;;;;;;;;;;18.75;55.52;101814.75;5026180;28;1637;-35
2022/03/10 12:53:46;;;;;;;;;;;;;;;18.81;55.30;101789.38;5027283;28;1583;-36
2022/03/10 12:56:13;;;;;;;;;;;;;;;18.62;55.78;101793.34;5026403;28;1437;-36
2022/03/10 12:58:39;;;;;;;;;;;;;;;18.64;56.04;101806.59;5025833;28;1621;-36
2022/03/10 13:01:06;;;;;;;;;;;;;;;18.59;56.01;101787.31;5028271;28;1612;-36
2022/03/10 13:03:36;;;;;;;;;;;;;;;18.57;56.10;101795.47;5031036;28;1901;-36
2022/03/10 13:06:08;;;;;;;;;;;;;;;18.72;55.35;101787.31;5029747;28;2151;-36
2022/03/10 13:08:40;;;;;;;;;;;;;;;18.78;55.42;101785.06;5032034;28;1906;-36